sensor_id;sensor_type;location;lat;lon;timestamp;pressure;altitude;pressure_sealevel;temperature;humidity
30935;BME280;51033;42.648;23.292;2023-02-13T00:00:23;95527.00;;;0.01;54.52
30935;BME280;51033;42.648;23.292;2023-02-13T00:02:49;95523.19;;;0.10;53.80
30935;BME280;51033;42.648;23.292;2023-02-13T00:05:15;95529.22;;;-0.02;54.03
30935;BME280;51033;42.648;23.292;2023-02-13T00:07:41;95508.75;;;-0.19;54.13
30935;BME280;51033;42.648;23.292;2023-02-13T00:10:07;95532.47;;;-0.00;53.90
30935;BME280;51033;42.648;23.292;2023-02-13T00:12:33;95513.38;;;-0.21;53.77
30935;BME280;51033;42.648;23.292;2023-02-13T00:14:58;95536.13;;;-0.15;53.69
30935;BME280;51033;42.648;23.292;2023-02-13T00:17:24;95536.91;;;-0.08;53.51
30935;BME280;51033;42.648;23.292;2023-02-13T00:19:50;95535.09;;;-0.14;54.24
30935;BME280;51033;42.648;23.292;2023-02-13T00:22:16;95530.31;;;-0.30;54.30
30935;BME280;51033;42.648;23.292;2023-02-13T00:24:42;95535.53;;;-0.30;54.28
30935;BME280;51033;42.648;23.292;2023-02-13T00:27:07;95538.94;;;-0.23;54.26
30935;BME280;51033;42.648;23.292;2023-02-13T00:29:33;95528.88;;;-0.19;54.05
30935;BME280;51033;42.648;23.292;2023-02-13T00:31:58;95546.34;;;-0.13;54.73
30935;BME280;51033;42.648;23.292;2023-02-13T00:34:25;95543.53;;;-0.12;54.95
30935;BME280;51033;42.648;23.292;2023-02-13T00:36:51;95546.16;;;-0.05;54.38
30935;BME280;51033;42.648;23.292;2023-02-13T00:39:16;95517.63;;;-0.26;54.24
30935;BME280;51033;42.648;23.292;2023-02-13T00:41:41;95543.34;;;-0.10;54.11
30935;BME280;51033;42.648;23.292;2023-02-13T00:44:08;95540.94;;;-0.12;54.18
30935;BME280;51033;42.648;23.292;2023-02-13T00:46:33;95548.75;;;0.02;54.14
30935;BME280;51033;42.648;23.292;2023-02-13T00:48:59;95546.72;;;0.04;54.15
30935;BME280;51033;42.648;23.292;2023-02-13T00:51:24;95524.47;;;-0.25;54.16
30935;BME280;51033;42.648;23.292;2023-02-13T00:53:50;95533.09;;;-0.18;54.56
30935;BME280;51033;42.648;23.292;2023-02-13T00:56:15;95557.81;;;-0.08;54.36
30935;BME280;51033;42.648;23.292;2023-02-13T00:58:40;95551.81;;;-0.15;54.21
30935;BME280;51033;42.648;23.292;2023-02-13T01:01:06;95562.66;;;-0.18;54.35
30935;BME280;51033;42.648;23.292;2023-02-13T01:03:31;95547.38;;;-0.21;54.25
30935;BME280;51033;42.648;23.292;2023-02-13T01:05:57;95558.03;;;-0.22;54.42
30935;BME280;51033;42.648;23.292;2023-02-13T01:08:23;95557.47;;;-0.31;54.64
30935;BME280;51033;42.648;23.292;2023-02-13T01:10:49;95552.63;;;-0.27;54.30
30935;BME280;51033;42.648;23.292;2023-02-13T01:13:16;95557.66;;;-0.32;54.21
30935;BME280;51033;42.648;23.292;2023-02-13T01:15:43;95531.72;;;-0.47;53.99
30935;BME280;51033;42.648;23.292;2023-02-13T01:18:11;95536.97;;;-0.34;53.93
30935;BME280;51033;42.648;23.292;2023-02-13T01:20:37;95546.19;;;-0.25;54.22
30935;BME280;51033;42.648;23.292;2023-02-13T01:23:02;95526.28;;;-0.32;53.92
30935;BME280;51033;42.648;23.292;2023-02-13T01:25:28;95558.03;;;-0.16;53.66
30935;BME280;51033;42.648;23.292;2023-02-13T01:27:54;95552.44;;;-0.26;54.01
30935;BME280;51033;42.648;23.292;2023-02-13T01:30:19;95538.94;;;-0.42;54.28
30935;BME280;51033;42.648;23.292;2023-02-13T01:32:46;95549.22;;;-0.41;54.64
30935;BME280;51033;42.648;23.292;2023-02-13T01:35:12;95558.84;;;-0.28;54.75
30935;BME280;51033;42.648;23.292;2023-02-13T01:37:39;95564.50;;;-0.25;55.06
30935;BME280;51033;42.648;23.292;2023-02-13T01:40:05;95564.69;;;-0.26;54.83
30935;BME280;51033;42.648;23.292;2023-02-13T01:42:33;95554.66;;;-0.36;54.93
30935;BME280;51033;42.648;23.292;2023-02-13T01:45:01;95569.91;;;-0.26;55.03
30935;BME280;51033;42.648;23.292;2023-02-13T01:47:43;95568.69;;;-0.11;54.68
30935;BME280;51033;42.648;23.292;2023-02-13T01:52:44;95575.34;;;-0.21;55.84
30935;BME280;51033;42.648;23.292;2023-02-13T01:55:13;95577.78;;;-0.20;55.93
30935;BME280;51033;42.648;23.292;2023-02-13T01:57:41;95566.28;;;-0.19;56.35
30935;BME280;51033;42.648;23.292;2023-02-13T02:00:10;95579.56;;;-0.14;56.63
30935;BME280;51033;42.648;23.292;2023-02-13T02:02:39;95513.22;;;-0.39;56.47
30935;BME280;51033;42.648;23.292;2023-02-13T02:05:06;95574.72;;;-0.03;56.86
30935;BME280;51033;42.648;23.292;2023-02-13T02:07:33;95581.94;;;0.08;57.16
30935;BME280;51033;42.648;23.292;2023-02-13T02:10:06;95566.88;;;-0.03;57.94
30935;BME280;51033;42.648;23.292;2023-02-13T02:13:14;95572.09;;;-0.03;58.04
30935;BME280;51033;42.648;23.292;2023-02-13T02:15:40;95571.84;;;0.18;58.22
30935;BME280;51033;42.648;23.292;2023-02-13T02:18:15;95552.16;;;0.15;58.22
30935;BME280;51033;42.648;23.292;2023-02-13T02:37:58;95552.09;;;0.22;59.37
30935;BME280;51033;42.648;23.292;2023-02-13T02:40:36;95539.91;;;-0.04;59.85
30935;BME280;51033;42.648;23.292;2023-02-13T02:48:32;95552.72;;;0.17;59.78
30935;BME280;51033;42.648;23.292;2023-02-13T02:57:05;95575.47;;;0.30;59.62
30935;BME280;51033;42.648;23.292;2023-02-13T02:59:33;95600.41;;;0.39;59.77
30935;BME280;51033;42.648;23.292;2023-02-13T03:02:20;95600.03;;;0.29;60.14
30935;BME280;51033;42.648;23.292;2023-02-13T03:05:16;95602.41;;;0.37;60.15
30935;BME280;51033;42.648;23.292;2023-02-13T03:08:02;95588.31;;;0.31;60.05
30935;BME280;51033;42.648;23.292;2023-02-13T03:10:31;95598.78;;;0.38;59.62
30935;BME280;51033;42.648;23.292;2023-02-13T03:13:39;95588.34;;;0.25;59.61
30935;BME280;51033;42.648;23.292;2023-02-13T03:16:11;95595.56;;;0.36;59.47
30935;BME280;51033;42.648;23.292;2023-02-13T03:28:25;95596.56;;;0.35;59.36
30935;BME280;51033;42.648;23.292;2023-02-13T03:41:56;95603.16;;;0.57;59.02
30935;BME280;51033;42.648;23.292;2023-02-13T03:46:54;95600.16;;;0.41;59.22
30935;BME280;51033;42.648;23.292;2023-02-13T03:49:25;95599.72;;;0.50;59.02
30935;BME280;51033;42.648;23.292;2023-02-13T03:52:17;95600.34;;;0.52;59.14
30935;BME280;51033;42.648;23.292;2023-02-13T03:54:49;95560.53;;;0.30;59.16
30935;BME280;51033;42.648;23.292;2023-02-13T03:57:37;95605.75;;;0.57;59.38
30935;BME280;51033;42.648;23.292;2023-02-13T04:00:24;95592.66;;;0.57;58.79
30935;BME280;51033;42.648;23.292;2023-02-13T04:02:57;95591.63;;;0.65;58.54
30935;BME280;51033;42.648;23.292;2023-02-13T04:05:28;95584.56;;;0.65;58.00
30935;BME280;51033;42.648;23.292;2023-02-13T04:07:54;95572.53;;;0.51;58.06
30935;BME280;51033;42.648;23.292;2023-02-13T04:10:21;95585.44;;;0.59;58.06
30935;BME280;51033;42.648;23.292;2023-02-13T04:15:32;95596.66;;;0.66;57.67
30935;BME280;51033;42.648;23.292;2023-02-13T04:18:13;95590.25;;;0.62;57.80
30935;BME280;51033;42.648;23.292;2023-02-13T04:20:40;95538.38;;;0.40;57.21
30935;BME280;51033;42.648;23.292;2023-02-13T04:23:06;95595.47;;;0.69;57.35
30935;BME280;51033;42.648;23.292;2023-02-13T04:25:33;95600.88;;;0.67;57.34
30935;BME280;51033;42.648;23.292;2023-02-13T04:27:59;95585.44;;;0.46;57.43
30935;BME280;51033;42.648;23.292;2023-02-13T04:30:25;95605.94;;;0.62;57.50
30935;BME280;51033;42.648;23.292;2023-02-13T04:32:50;95601.47;;;0.69;57.01
30935;BME280;51033;42.648;23.292;2023-02-13T04:35:17;95600.44;;;0.84;56.55
30935;BME280;51033;42.648;23.292;2023-02-13T04:37:42;95569.72;;;0.53;56.77
30935;BME280;51033;42.648;23.292;2023-02-13T04:40:08;95590.06;;;0.57;57.39
30935;BME280;51033;42.648;23.292;2023-02-13T04:42:34;95588.88;;;0.40;57.91
30935;BME280;51033;42.648;23.292;2023-02-13T04:44:59;95565.00;;;0.30;57.89
30935;BME280;51033;42.648;23.292;2023-02-13T04:47:24;95586.63;;;0.50;57.59
30935;BME280;51033;42.648;23.292;2023-02-13T04:49:50;95589.97;;;0.13;58.75
30935;BME280;51033;42.648;23.292;2023-02-13T04:52:15;95575.31;;;0.05;58.90
30935;BME280;51033;42.648;23.292;2023-02-13T04:54:40;95584.78;;;-0.07;59.46
30935;BME280;51033;42.648;23.292;2023-02-13T04:57:06;95590.78;;;0.07;59.29
30935;BME280;51033;42.648;23.292;2023-02-13T04:59:31;95583.94;;;0.06;59.18
30935;BME280;51033;42.648;23.292;2023-02-13T05:01:57;95604.06;;;0.12;59.10
30935;BME280;51033;42.648;23.292;2023-02-13T05:04:23;95613.09;;;0.16;59.34
30935;BME280;51033;42.648;23.292;2023-02-13T05:06:50;95601.25;;;0.13;59.36
30935;BME280;51033;42.648;23.292;2023-02-13T05:09:15;95619.09;;;0.36;59.39
30935;BME280;51033;42.648;23.292;2023-02-13T05:11:40;95627.56;;;0.38;58.94
30935;BME280;51033;42.648;23.292;2023-02-13T05:14:06;95580.31;;;0.13;58.83
30935;BME280;51033;42.648;23.292;2023-02-13T05:16:31;95576.28;;;0.24;58.80
30935;BME280;51033;42.648;23.292;2023-02-13T05:18:57;95588.53;;;0.30;58.50
30935;BME280;51033;42.648;23.292;2023-02-13T05:21:22;95621.28;;;0.52;58.46
30935;BME280;51033;42.648;23.292;2023-02-13T05:24:06;95620.97;;;0.29;59.08
30935;BME280;51033;42.648;23.292;2023-02-13T05:26:32;95590.78;;;0.07;59.02
30935;BME280;51033;42.648;23.292;2023-02-13T05:28:57;95612.34;;;0.09;59.49
30935;BME280;51033;42.648;23.292;2023-02-13T05:31:41;95618.53;;;0.21;59.29
30935;BME280;51033;42.648;23.292;2023-02-13T05:34:07;95610.53;;;0.03;59.45
30935;BME280;51033;42.648;23.292;2023-02-13T05:36:32;95613.34;;;0.08;59.32
30935;BME280;51033;42.648;23.292;2023-02-13T05:38:57;95613.75;;;-0.02;59.63
30935;BME280;51033;42.648;23.292;2023-02-13T05:41:23;95608.50;;;-0.09;60.11
30935;BME280;51033;42.648;23.292;2023-02-13T05:43:48;95627.00;;;0.16;59.64
30935;BME280;51033;42.648;23.292;2023-02-13T05:46:14;95630.63;;;0.28;59.27
30935;BME280;51033;42.648;23.292;2023-02-13T05:48:39;95637.47;;;0.29;59.40
30935;BME280;51033;42.648;23.292;2023-02-13T05:51:05;95637.44;;;0.36;59.20
30935;BME280;51033;42.648;23.292;2023-02-13T05:53:30;95642.09;;;0.34;59.30
30935;BME280;51033;42.648;23.292;2023-02-13T05:55:59;95641.50;;;0.19;59.56
30935;BME280;51033;42.648;23.292;2023-02-13T05:58:25;95631.63;;;0.21;59.87
30935;BME280;51033;42.648;23.292;2023-02-13T06:00:57;95628.19;;;0.27;59.97
30935;BME280;51033;42.648;23.292;2023-02-13T06:03:24;95651.13;;;0.31;59.63
30935;BME280;51033;42.648;23.292;2023-02-13T06:05:50;95653.97;;;0.23;60.14
30935;BME280;51033;42.648;23.292;2023-02-13T06:08:15;95628.44;;;-0.08;60.88
30935;BME280;51033;42.648;23.292;2023-02-13T06:10:41;95655.19;;;0.21;60.93
30935;BME280;51033;42.648;23.292;2023-02-13T06:13:06;95650.13;;;0.26;60.25
30935;BME280;51033;42.648;23.292;2023-02-13T06:15:31;95646.09;;;0.36;59.85
30935;BME280;51033;42.648;23.292;2023-02-13T06:17:57;95657.34;;;0.50;59.73
30935;BME280;51033;42.648;23.292;2023-02-13T06:20:22;95641.03;;;0.48;59.26
30935;BME280;51033;42.648;23.292;2023-02-13T06:22:51;95652.69;;;0.59;59.11
30935;BME280;51033;42.648;23.292;2023-02-13T06:25:17;95629.97;;;0.46;58.73
30935;BME280;51033;42.648;23.292;2023-02-13T06:27:43;95661.38;;;0.59;58.84
30935;BME280;51033;42.648;23.292;2023-02-13T06:30:09;95637.00;;;0.52;58.82
30935;BME280;51033;42.648;23.292;2023-02-13T06:32:34;95613.34;;;0.08;59.15
30935;BME280;51033;42.648;23.292;2023-02-13T06:35:00;95644.72;;;0.08;60.08
30935;BME280;51033;42.648;23.292;2023-02-13T06:37:25;95638.69;;;-0.13;60.72
30935;BME280;51033;42.648;23.292;2023-02-13T06:39:50;95658.22;;;0.05;60.86
30935;BME280;51033;42.648;23.292;2023-02-13T06:42:16;95666.66;;;0.13;61.15
30935;BME280;51033;42.648;23.292;2023-02-13T06:44:42;95651.78;;;0.07;60.87
30935;BME280;51033;42.648;23.292;2023-02-13T06:47:08;95650.38;;;0.05;60.69
30935;BME280;51033;42.648;23.292;2023-02-13T06:49:33;95669.91;;;0.15;60.60
30935;BME280;51033;42.648;23.292;2023-02-13T06:51:58;95651.19;;;-0.01;60.77
30935;BME280;51033;42.648;23.292;2023-02-13T06:54:24;95646.56;;;-0.13;61.57
30935;BME280;51033;42.648;23.292;2023-02-13T06:56:49;95646.75;;;-0.21;62.07
30935;BME280;51033;42.648;23.292;2023-02-13T06:59:14;95671.50;;;0.10;61.71
30935;BME280;51033;42.648;23.292;2023-02-13T07:01:40;95674.31;;;0.02;61.26
30935;BME280;51033;42.648;23.292;2023-02-13T07:04:05;95656.03;;;-0.25;61.95
30935;BME280;51033;42.648;23.292;2023-02-13T07:06:31;95664.88;;;0.01;61.38
30935;BME280;51033;42.648;23.292;2023-02-13T07:08:56;95628.47;;;-0.34;61.69
30935;BME280;51033;42.648;23.292;2023-02-13T07:11:23;95636.47;;;-0.09;61.23
30935;BME280;51033;42.648;23.292;2023-02-13T07:13:49;95651.59;;;-0.11;61.82
30935;BME280;51033;42.648;23.292;2023-02-13T07:16:15;95662.44;;;0.19;61.34
30935;BME280;51033;42.648;23.292;2023-02-13T07:18:40;95655.19;;;0.08;60.96
30935;BME280;51033;42.648;23.292;2023-02-13T07:21:06;95621.78;;;-0.03;60.85
30935;BME280;51033;42.648;23.292;2023-02-13T07:23:32;95631.88;;;-0.00;60.38
30935;BME280;51033;42.648;23.292;2023-02-13T07:25:59;95676.53;;;0.05;61.19
30935;BME280;51033;42.648;23.292;2023-02-13T07:28:25;95632.69;;;-0.20;61.10
30935;BME280;51033;42.648;23.292;2023-02-13T07:30:51;95679.94;;;0.12;61.10
30935;BME280;51033;42.648;23.292;2023-02-13T07:33:16;95676.94;;;0.02;61.40
30935;BME280;51033;42.648;23.292;2023-02-13T07:35:50;95664.06;;;-0.07;61.66
30935;BME280;51033;42.648;23.292;2023-02-13T07:38:16;95678.13;;;0.19;61.19
30935;BME280;51033;42.648;23.292;2023-02-13T07:40:42;95662.22;;;0.27;60.66
30935;BME280;51033;42.648;23.292;2023-02-13T07:43:07;95678.94;;;0.39;60.35
30935;BME280;51033;42.648;23.292;2023-02-13T07:45:33;95651.94;;;0.25;60.28
30935;BME280;51033;42.648;23.292;2023-02-13T07:47:58;95674.88;;;0.43;60.37
30935;BME280;51033;42.648;23.292;2023-02-13T07:50:25;95659.13;;;0.56;59.50
30935;BME280;51033;42.648;23.292;2023-02-13T07:52:58;95671.59;;;0.67;58.89
30935;BME280;51033;42.648;23.292;2023-02-13T07:55:24;95685.31;;;0.63;58.69
30935;BME280;51033;42.648;23.292;2023-02-13T07:57:50;95673.59;;;0.72;58.51
30935;BME280;51033;42.648;23.292;2023-02-13T08:00:16;95663.19;;;0.52;58.82
30935;BME280;51033;42.648;23.292;2023-02-13T08:02:42;95672.47;;;0.35;59.69
30935;BME280;51033;42.648;23.292;2023-02-13T08:05:11;95653.78;;;0.25;59.93
30935;BME280;51033;42.648;23.292;2023-02-13T08:07:37;95675.09;;;0.35;59.62
30935;BME280;51033;42.648;23.292;2023-02-13T08:10:03;95652.34;;;0.35;59.49
30935;BME280;51033;42.648;23.292;2023-02-13T08:12:47;95673.47;;;0.47;59.57
30935;BME280;51033;42.648;23.292;2023-02-13T08:15:14;95675.47;;;0.52;59.97
30935;BME280;51033;42.648;23.292;2023-02-13T08:17:40;95654.94;;;0.42;59.15
30935;BME280;51033;42.648;23.292;2023-02-13T08:20:07;95681.31;;;0.54;59.48
30935;BME280;51033;42.648;23.292;2023-02-13T08:22:33;95658.97;;;0.45;59.37
30935;BME280;51033;42.648;23.292;2023-02-13T08:24:58;95673.03;;;0.57;59.04
30935;BME280;51033;42.648;23.292;2023-02-13T08:27:24;95641.28;;;0.27;59.57
30935;BME280;51033;42.648;23.292;2023-02-13T08:29:50;95678.47;;;0.68;59.41
30935;BME280;51033;42.648;23.292;2023-02-13T08:32:16;95679.78;;;0.91;57.68
30935;BME280;51033;42.648;23.292;2023-02-13T08:34:41;95672.16;;;0.83;57.34
30935;BME280;51033;42.648;23.292;2023-02-13T08:37:06;95664.19;;;0.58;58.30
30935;BME280;51033;42.648;23.292;2023-02-13T08:39:32;95661.19;;;0.41;59.18
30935;BME280;51033;42.648;23.292;2023-02-13T08:41:57;95668.75;;;0.75;58.44
30935;BME280;51033;42.648;23.292;2023-02-13T08:44:22;95669.94;;;0.79;57.87
30935;BME280;51033;42.648;23.292;2023-02-13T08:46:48;95667.38;;;0.66;57.96
30935;BME280;51033;42.648;23.292;2023-02-13T08:49:13;95665.16;;;0.63;58.09
30935;BME280;51033;42.648;23.292;2023-02-13T08:51:39;95671.56;;;0.80;58.11
30935;BME280;51033;42.648;23.292;2023-02-13T08:54:04;95671.47;;;1.00;57.68
30935;BME280;51033;42.648;23.292;2023-02-13T08:56:30;95668.84;;;1.00;56.87
30935;BME280;51033;42.648;23.292;2023-02-13T08:58:55;95674.97;;;0.88;57.19
30935;BME280;51033;42.648;23.292;2023-02-13T09:01:20;95667.28;;;0.93;57.49
30935;BME280;51033;42.648;23.292;2023-02-13T09:03:48;95663.41;;;1.02;57.27
30935;BME280;51033;42.648;23.292;2023-02-13T09:06:13;95666.16;;;1.20;56.56
30935;BME280;51033;42.648;23.292;2023-02-13T09:08:39;95665.69;;;1.30;56.76
30935;BME280;51033;42.648;23.292;2023-02-13T09:11:05;95668.88;;;1.38;56.88
30935;BME280;51033;42.648;23.292;2023-02-13T09:13:34;95656.00;;;1.30;56.73
30935;BME280;51033;42.648;23.292;2023-02-13T09:16:03;95671.84;;;1.48;56.37
30935;BME280;51033;42.648;23.292;2023-02-13T09:18:29;95675.03;;;1.57;56.37
30935;BME280;51033;42.648;23.292;2023-02-13T09:21:03;95672.72;;;1.67;55.62
30935;BME280;51033;42.648;23.292;2023-02-13T09:23:30;95640.81;;;1.45;55.04
30935;BME280;51033;42.648;23.292;2023-02-13T09:26:00;95643.66;;;0.99;56.42
30935;BME280;51033;42.648;23.292;2023-02-13T09:28:27;95649.84;;;0.67;57.92
30935;BME280;51033;42.648;23.292;2023-02-13T09:30:53;95663.59;;;1.07;57.34
30935;BME280;51033;42.648;23.292;2023-02-13T09:33:18;95625.91;;;1.08;56.69
30935;BME280;51033;42.648;23.292;2023-02-13T09:35:43;95654.56;;;1.03;57.69
30935;BME280;51033;42.648;23.292;2023-02-13T09:38:09;95638.72;;;1.22;56.65
30935;BME280;51033;42.648;23.292;2023-02-13T09:43:12;95641.31;;;1.60;55.96
30935;BME280;51033;42.648;23.292;2023-02-13T09:45:39;95643.50;;;1.32;55.66
30935;BME280;51033;42.648;23.292;2023-02-13T09:48:05;95608.44;;;0.31;58.87
30935;BME280;51033;42.648;23.292;2023-02-13T09:50:34;95648.69;;;1.07;57.93
30935;BME280;51033;42.648;23.292;2023-02-13T09:53:02;95632.25;;;1.25;56.67
30935;BME280;51033;42.648;23.292;2023-02-13T09:58:14;95618.72;;;1.28;56.21
30935;BME280;51033;42.648;23.292;2023-02-13T10:00:47;95618.06;;;1.33;56.18
30935;BME280;51033;42.648;23.292;2023-02-13T10:03:31;95627.97;;;1.62;56.56
30935;BME280;51033;42.648;23.292;2023-02-13T10:08:46;95629.44;;;1.83;55.75
30935;BME280;51033;42.648;23.292;2023-02-13T10:17:00;95612.88;;;1.26;57.46
30935;BME280;51033;42.648;23.292;2023-02-13T10:19:34;95590.38;;;1.43;57.03
30935;BME280;51033;42.648;23.292;2023-02-13T10:22:09;95608.47;;;1.20;58.23
30935;BME280;51033;42.648;23.292;2023-02-13T10:24:57;95611.25;;;0.43;60.69
30935;BME280;51033;42.648;23.292;2023-02-13T10:27:39;95580.84;;;0.93;58.96
30935;BME280;51033;42.648;23.292;2023-02-13T10:35:28;95579.22;;;1.54;57.14
30935;BME280;51033;42.648;23.292;2023-02-13T10:37:55;95575.91;;;1.65;56.61
30935;BME280;51033;42.648;23.292;2023-02-13T10:40:27;95569.97;;;1.52;56.82
30935;BME280;51033;42.648;23.292;2023-02-13T10:43:01;95574.66;;;1.93;56.11
30935;BME280;51033;42.648;23.292;2023-02-13T11:04:34;95543.94;;;2.55;54.41
30935;BME280;51033;42.648;23.292;2023-02-13T11:07:01;95539.38;;;2.62;53.85
30935;BME280;51033;42.648;23.292;2023-02-13T11:09:29;95546.72;;;2.23;54.92
30935;BME280;51033;42.648;23.292;2023-02-13T11:11:57;95531.53;;;2.07;55.11
30935;BME280;51033;42.648;23.292;2023-02-13T11:14:25;95538.31;;;2.33;54.59
30935;BME280;51033;42.648;23.292;2023-02-13T11:17:00;95535.09;;;2.13;54.93
30935;BME280;51033;42.648;23.292;2023-02-13T11:24:27;95496.25;;;2.39;54.04
30935;BME280;51033;42.648;23.292;2023-02-13T11:27:06;95485.34;;;2.84;52.40
30935;BME280;51033;42.648;23.292;2023-02-13T11:29:35;95491.22;;;3.09;51.30
30935;BME280;51033;42.648;23.292;2023-02-13T11:34:47;95491.75;;;3.41;50.61
30935;BME280;51033;42.648;23.292;2023-02-13T11:37:21;95467.38;;;3.22;50.97
30935;BME280;51033;42.648;23.292;2023-02-13T11:39:48;95476.06;;;3.34;49.93
30935;BME280;51033;42.648;23.292;2023-02-13T11:42:23;95482.31;;;2.99;50.79
30935;BME280;51033;42.648;23.292;2023-02-13T11:45:22;95479.00;;;3.03;51.26
30935;BME280;51033;42.648;23.292;2023-02-13T11:47:49;95477.44;;;3.49;50.48
30935;BME280;51033;42.648;23.292;2023-02-13T11:50:29;95458.13;;;3.55;49.78
30935;BME280;51033;42.648;23.292;2023-02-13T12:03:22;95415.91;;;3.50;49.92
30935;BME280;51033;42.648;23.292;2023-02-13T12:06:15;95417.97;;;3.71;49.22
30935;BME280;51033;42.648;23.292;2023-02-13T12:08:43;95433.63;;;3.54;49.42
30935;BME280;51033;42.648;23.292;2023-02-13T12:13:57;95380.91;;;3.61;49.01
30935;BME280;51033;42.648;23.292;2023-02-13T12:16:30;95409.28;;;3.59;49.03
30935;BME280;51033;42.648;23.292;2023-02-13T12:18:59;95427.94;;;3.46;49.70
30935;BME280;51033;42.648;23.292;2023-02-13T12:26:43;95410.63;;;3.84;49.02
30935;BME280;51033;42.648;23.292;2023-02-13T12:32:13;95421.56;;;3.93;47.75
30935;BME280;51033;42.648;23.292;2023-02-13T12:37:59;95414.44;;;3.30;49.29
30935;BME280;51033;42.648;23.292;2023-02-13T12:46:05;95407.28;;;3.89;46.67
30935;BME280;51033;42.648;23.292;2023-02-13T13:00:13;95389.44;;;4.76;45.26
30935;BME280;51033;42.648;23.292;2023-02-13T13:11:43;95385.88;;;4.82;45.05
30935;BME280;51033;42.648;23.292;2023-02-13T13:17:54;95376.06;;;3.81;46.60
30935;BME280;51033;42.648;23.292;2023-02-13T13:20:38;95383.22;;;4.37;46.25
30935;BME280;51033;42.648;23.292;2023-02-13T13:23:17;95361.06;;;4.50;45.09
30935;BME280;51033;42.648;23.292;2023-02-13T13:28:19;95362.94;;;4.99;44.36
30935;BME280;51033;42.648;23.292;2023-02-13T13:30:46;95356.69;;;5.05;43.85
30935;BME280;51033;42.648;23.292;2023-02-13T13:33:15;95365.00;;;5.14;44.03
30935;BME280;51033;42.648;23.292;2023-02-13T13:35:45;95347.25;;;5.26;43.75
30935;BME280;51033;42.648;23.292;2023-02-13T13:38:20;95341.56;;;4.51;44.84
30935;BME280;51033;42.648;23.292;2023-02-13T13:51:06;95335.28;;;5.19;43.38
30935;BME280;51033;42.648;23.292;2023-02-13T13:53:33;95324.59;;;4.75;44.44
30935;BME280;51033;42.648;23.292;2023-02-13T13:56:02;95358.06;;;4.30;45.31
30935;BME280;51033;42.648;23.292;2023-02-13T14:11:50;95349.81;;;4.71;45.16
30935;BME280;51033;42.648;23.292;2023-02-13T14:16:54;95344.69;;;5.14;44.44
30935;BME280;51033;42.648;23.292;2023-02-13T14:19:35;95333.25;;;5.26;43.76
30935;BME280;51033;42.648;23.292;2023-02-13T14:22:26;95336.63;;;5.21;43.64
30935;BME280;51033;42.648;23.292;2023-02-13T14:24:57;95332.66;;;5.19;43.98
30935;BME280;51033;42.648;23.292;2023-02-13T14:27:34;95338.03;;;5.29;43.89
30935;BME280;51033;42.648;23.292;2023-02-13T14:30:05;95307.38;;;5.23;43.72
30935;BME280;51033;42.648;23.292;2023-02-13T14:32:46;95307.44;;;5.28;42.95
30935;BME280;51033;42.648;23.292;2023-02-13T14:37:47;95322.56;;;5.16;43.74
30935;BME280;51033;42.648;23.292;2023-02-13T14:42:39;95312.25;;;5.14;43.75
30935;BME280;51033;42.648;23.292;2023-02-13T14:45:15;95299.19;;;5.02;43.88
30935;BME280;51033;42.648;23.292;2023-02-13T14:47:45;95335.28;;;5.19;43.74
30935;BME280;51033;42.648;23.292;2023-02-13T14:50:24;95317.41;;;4.70;44.22
30935;BME280;51033;42.648;23.292;2023-02-13T14:52:51;95290.56;;;4.74;44.11
30935;BME280;51033;42.648;23.292;2023-02-13T14:55:30;95330.03;;;5.02;43.81
30935;BME280;51033;42.648;23.292;2023-02-13T14:58:14;95317.41;;;4.87;44.07
30935;BME280;51033;42.648;23.292;2023-02-13T15:00:54;95321.16;;;4.91;44.17
30935;BME280;51033;42.648;23.292;2023-02-13T15:03:28;95326.69;;;4.73;44.18
30935;BME280;51033;42.648;23.292;2023-02-13T15:05:59;95301.91;;;4.57;44.22
30935;BME280;51033;42.648;23.292;2023-02-13T15:08:31;95308.94;;;4.52;44.65
30935;BME280;51033;42.648;23.292;2023-02-13T15:10:58;95303.97;;;4.39;45.11
30935;BME280;51033;42.648;23.292;2023-02-13T15:13:31;95306.53;;;4.67;45.16
30935;BME280;51033;42.648;23.292;2023-02-13T15:18:32;95324.34;;;4.77;44.29
30935;BME280;51033;42.648;23.292;2023-02-13T15:20:58;95325.06;;;4.72;44.50
30935;BME280;51033;42.648;23.292;2023-02-13T15:23:28;95332.25;;;4.77;44.63
30935;BME280;51033;42.648;23.292;2023-02-13T15:26:02;95331.69;;;4.58;45.02
30935;BME280;51033;42.648;23.292;2023-02-13T15:28:29;95321.25;;;4.63;45.17
30935;BME280;51033;42.648;23.292;2023-02-13T15:30:59;95330.44;;;4.77;45.04
30935;BME280;51033;42.648;23.292;2023-02-13T15:33:28;95329.53;;;4.55;44.80
30935;BME280;51033;42.648;23.292;2023-02-13T15:35:59;95297.59;;;4.35;44.93
30935;BME280;51033;42.648;23.292;2023-02-13T15:38:25;95330.41;;;4.60;44.80
30935;BME280;51033;42.648;23.292;2023-02-13T15:40:55;95328.88;;;4.48;44.92
30935;BME280;51033;42.648;23.292;2023-02-13T15:43:39;95302.16;;;4.27;45.14
30935;BME280;51033;42.648;23.292;2023-02-13T15:46:20;95339.75;;;4.51;44.74
30935;BME280;51033;42.648;23.292;2023-02-13T15:48:46;95331.03;;;4.22;45.41
30935;BME280;51033;42.648;23.292;2023-02-13T15:51:20;95333.53;;;4.29;45.13
30935;BME280;51033;42.648;23.292;2023-02-13T15:54:01;95347.06;;;4.21;45.34
30935;BME280;51033;42.648;23.292;2023-02-13T15:56:28;95332.03;;;4.05;45.76
30935;BME280;51033;42.648;23.292;2023-02-13T15:58:58;95339.78;;;4.11;45.32
30935;BME280;51033;42.648;23.292;2023-02-13T16:01:24;95342.06;;;4.19;45.58
30935;BME280;51033;42.648;23.292;2023-02-13T16:03:53;95337.13;;;4.23;45.12
30935;BME280;51033;42.648;23.292;2023-02-13T16:06:22;95335.59;;;3.99;45.75
30935;BME280;51033;42.648;23.292;2023-02-13T16:08:51;95341.16;;;3.86;46.24
30935;BME280;51033;42.648;23.292;2023-02-13T16:13:54;95336.00;;;3.79;46.33
30935;BME280;51033;42.648;23.292;2023-02-13T16:16:20;95335.38;;;3.72;46.45
30935;BME280;51033;42.648;23.292;2023-02-13T16:18:46;95313.69;;;3.42;46.74
30935;BME280;51033;42.648;23.292;2023-02-13T16:21:11;95330.72;;;3.39;47.24
30935;BME280;51033;42.648;23.292;2023-02-13T16:23:37;95338.63;;;3.27;47.38